Time;durP1;ratioP1;P1;durP2;ratioP2;P2;SDS_P1;SDS_P2;PMS_P1;PMS_P2;Temp;Humidity;BMP_temperature;BMP_pressure;BME280_temperature;BME280_humidity;BME280_pressure;Samples;Min_cycle;Max_cycle;Signal;HPM_P1;HPM_P2
2023/05/11 00:01:02;;;;;;;7.22;4.13;;;23.00;43.40;;;;;;7605814;23;80949;-67
2023/05/11 00:04:03;;;;;;;8.15;3.90;;;23.00;43.50;;;;;;7605806;23;80308;-70
2023/05/11 00:07:03;;;;;;;5.90;3.97;;;23.00;43.50;;;;;;7606189;23;80092;-71
2023/05/11 00:10:04;;;;;;;5.95;3.65;;;23.10;43.30;;;;;;7605734;23;80399;-72
2023/05/11 00:13:04;;;;;;;5.25;3.13;;;23.00;43.30;;;;;;7606420;23;81060;-65
2023/05/11 00:16:05;;;;;;;4.40;3.20;;;23.00;43.20;;;;;;7606154;23;80323;-66
2023/05/11 00:19:06;;;;;;;7.13;3.30;;;23.00;43.20;;;;;;7606498;23;81600;-65
2023/05/11 00:22:06;;;;;;;4.75;3.10;;;23.00;43.30;;;;;;7606178;23;80415;-64
2023/05/11 00:25:07;;;;;;;6.38;3.67;;;23.00;43.30;;;;;;7602416;23;80334;-64
2023/05/11 00:28:09;;;;;;;7.35;3.90;;;23.00;43.40;;;;;;7606256;23;80596;-66
2023/05/11 00:31:09;;;;;;;5.57;4.05;;;23.00;43.50;;;;;;7578522;23;81853;-63
2023/05/11 00:34:10;;;;;;;6.07;3.90;;;23.00;43.40;;;;;;7579621;23;81312;-62
2023/05/11 00:37:10;;;;;;;6.20;3.58;;;23.00;43.50;;;;;;7605904;23;80668;-62
2023/05/11 00:40:11;;;;;;;7.60;4.20;;;23.00;43.50;;;;;;7603831;23;81445;-63
2023/05/11 00:43:12;;;;;;;4.93;3.55;;;23.00;43.40;;;;;;7605236;23;80447;-63
2023/05/11 00:46:12;;;;;;;7.47;4.32;;;23.00;43.40;;;;;;7604078;23;80321;-63
2023/05/11 00:49:16;;;;;;;6.97;3.60;;;23.00;43.30;;;;;;7578262;23;83001;-61
2023/05/11 00:52:16;;;;;;;6.47;4.38;;;23.00;43.30;;;;;;7579562;23;83223;-64
2023/05/11 00:55:17;;;;;;;4.80;3.80;;;23.00;43.30;;;;;;7605422;23;80400;-62
2023/05/11 00:58:17;;;;;;;5.75;3.78;;;22.90;43.20;;;;;;7605738;23;80206;-63
2023/05/11 01:01:18;;;;;;;5.07;3.60;;;22.90;43.20;;;;;;7578604;23;82011;-63
2023/05/11 01:04:18;;;;;;;6.05;4.13;;;22.90;43.10;;;;;;7604965;23;80308;-63
2023/05/11 01:07:19;;;;;;;7.10;3.83;;;22.90;43.00;;;;;;7604527;23;80618;-63
2023/05/11 01:10:21;;;;;;;6.20;3.90;;;22.90;43.00;;;;;;7578869;23;82494;-64
2023/05/11 01:13:22;;;;;;;8.68;4.38;;;22.90;43.00;;;;;;7578924;23;83093;-63
2023/05/11 01:16:26;;;;;;;5.90;3.95;;;22.90;42.90;;;;;;7579188;23;82655;-62
2023/05/11 01:19:30;;;;;;;8.20;4.60;;;22.90;42.90;;;;;;7578569;23;83443;-63
2023/05/11 01:22:31;;;;;;;5.43;3.47;;;22.90;42.80;;;;;;7579556;23;82518;-64
2023/05/11 01:25:31;;;;;;;6.80;4.15;;;22.90;42.90;;;;;;7552890;23;81159;-65
2023/05/11 01:28:33;;;;;;;7.05;3.90;;;22.90;42.90;;;;;;7579262;23;82610;-63
2023/05/11 01:31:34;;;;;;;5.78;3.90;;;22.90;42.80;;;;;;7579022;23;82395;-63
2023/05/11 01:34:35;;;;;;;5.30;3.92;;;22.90;42.90;;;;;;7578529;23;83251;-63
2023/05/11 01:37:35;;;;;;;6.25;4.25;;;22.90;42.80;;;;;;7579456;23;80872;-64
2023/05/11 01:40:36;;;;;;;5.65;3.67;;;22.90;42.90;;;;;;7605780;23;80154;-64
2023/05/11 01:43:36;;;;;;;5.07;3.40;;;22.90;42.90;;;;;;7604891;23;80178;-64
2023/05/11 01:46:38;;;;;;;5.40;3.22;;;22.90;42.90;;;;;;7579756;23;82036;-62
2023/05/11 01:49:39;;;;;;;4.82;3.63;;;22.90;43.00;;;;;;7605592;23;80292;-64
2023/05/11 01:52:40;;;;;;;5.72;3.53;;;22.90;43.00;;;;;;7605957;23;86700;-63
2023/05/11 01:55:40;;;;;;;6.03;4.03;;;22.90;42.70;;;;;;7606378;23;81249;-63
2023/05/11 01:58:42;;;;;;;5.82;3.67;;;22.90;42.70;;;;;;7604582;23;81393;-64
2023/05/11 02:01:42;;;;;;;8.60;3.75;;;22.90;42.80;;;;;;7605850;23;80430;-63
2023/05/11 02:04:43;;;;;;;8.43;4.47;;;22.90;42.80;;;;;;7604546;23;80262;-63
2023/05/11 02:07:43;;;;;;;6.20;4.07;;;22.90;42.90;;;;;;7606417;23;80465;-63
2023/05/11 02:10:44;;;;;;;7.88;3.88;;;22.90;42.80;;;;;;7605828;23;79845;-64
2023/05/11 02:13:45;;;;;;;5.75;3.90;;;22.90;42.80;;;;;;7606687;23;80774;-63
2023/05/11 02:16:46;;;;;;;7.63;4.05;;;22.90;42.80;;;;;;7578056;23;83180;-63
2023/05/11 02:19:46;;;;;;;5.65;3.38;;;22.90;42.80;;;;;;7579396;23;82341;-62
2023/05/11 02:22:47;;;;;;;5.05;3.40;;;22.90;42.90;;;;;;7604763;23;80058;-62
2023/05/11 02:25:47;;;;;;;5.55;3.38;;;22.90;42.80;;;;;;7579399;23;81554;-62
2023/05/11 02:28:48;;;;;;;8.18;4.40;;;22.90;42.80;;;;;;7578220;23;83413;-62
2023/05/11 02:31:48;;;;;;;5.40;3.55;;;22.90;42.90;;;;;;7605465;23;80829;-63
2023/05/11 02:34:52;;;;;;;7.50;3.90;;;22.90;42.90;;;;;;7577729;23;87711;-62
2023/05/11 02:37:54;;;;;;;8.35;4.43;;;22.90;42.80;;;;;;7579298;23;82852;-67
2023/05/11 02:40:55;;;;;;;5.68;3.45;;;22.90;42.90;;;;;;7578119;23;80785;-65
2023/05/11 02:43:56;;;;;;;5.07;3.50;;;22.90;42.90;;;;;;7604487;23;80148;-65
2023/05/11 02:46:57;;;;;;;8.68;4.25;;;22.90;42.60;;;;;;7604951;23;81031;-66
2023/05/11 02:49:57;;;;;;;6.90;4.07;;;22.90;42.70;;;;;;7578808;23;82468;-67
2023/05/11 02:53:01;;;;;;;6.05;3.70;;;22.80;42.70;;;;;;7578908;23;81581;-68
2023/05/11 02:56:01;;;;;;;7.47;3.67;;;22.90;42.80;;;;;;7578941;23;82195;-67
2023/05/11 02:59:04;;;;;;;5.65;3.63;;;22.90;42.70;;;;;;7578220;23;80665;-64
2023/05/11 03:02:04;;;;;;;4.95;3.63;;;22.80;42.70;;;;;;7578340;23;81792;-64
2023/05/11 03:05:05;;;;;;;9.38;4.10;;;22.80;42.70;;;;;;7579018;23;83229;-64
2023/05/11 03:08:06;;;;;;;7.95;3.65;;;22.80;42.60;;;;;;7605090;23;80386;-66
2023/05/11 03:11:07;;;;;;;5.50;3.92;;;22.80;42.70;;;;;;7578792;23;83172;-64
2023/05/11 03:14:08;;;;;;;7.25;3.80;;;22.80;42.70;;;;;;7604144;23;80229;-63
2023/05/11 03:17:08;;;;;;;5.78;3.90;;;22.80;42.70;;;;;;7605365;23;80300;-63
2023/05/11 03:20:09;;;;;;;6.30;3.85;;;22.80;42.70;;;;;;7577638;23;82021;-62
2023/05/11 03:23:09;;;;;;;6.18;3.50;;;22.80;42.70;;;;;;7577962;23;80387;-62
2023/05/11 03:26:10;;;;;;;5.05;3.70;;;22.80;42.70;;;;;;7604813;23;81375;-64
2023/05/11 03:29:12;;;;;;;5.05;3.35;;;22.80;42.70;;;;;;7573247;23;82310;-64
2023/05/11 03:32:13;;;;;;;5.45;3.65;;;22.80;42.60;;;;;;7595409;23;80362;-62
2023/05/11 03:35:14;;;;;;;6.43;3.70;;;22.80;42.50;;;;;;7572909;23;80503;-65
2023/05/11 03:38:15;;;;;;;6.22;3.78;;;22.90;42.60;;;;;;7577470;23;82607;-59
2023/05/11 03:41:16;;;;;;;6.75;3.35;;;22.90;42.80;;;;;;7576810;23;80857;-65
2023/05/11 03:44:19;;;;;;;6.93;3.47;;;22.90;42.80;;;;;;7577191;23;80589;-60
2023/05/11 03:47:21;;;;;;;11.25;3.67;;;22.90;43.20;;;;;;7577765;23;83051;-58
2023/05/11 03:50:22;;;;;;;6.20;3.38;;;22.90;43.20;;;;;;7576414;23;82913;-60
2023/05/11 03:53:22;;;;;;;7.20;3.63;;;22.90;43.10;;;;;;7577932;23;83012;-59
2023/05/11 03:56:23;;;;;;;9.13;3.55;;;22.80;43.10;;;;;;7577325;23;83021;-61
2023/05/11 03:59:25;;;;;;;6.32;3.78;;;22.80;42.90;;;;;;7579170;23;86882;-60
2023/05/11 04:02:25;;;;;;;10.50;3.30;;;22.80;42.90;;;;;;7579870;23;83178;-58
2023/05/11 04:05:26;;;;;;;9.10;3.90;;;22.80;43.60;;;;;;7605944;23;80442;-57
2023/05/11 04:08:28;;;;;;;6.82;3.45;;;22.80;43.30;;;;;;7604907;23;81559;-58
2023/05/11 04:11:29;;;;;;;5.28;2.90;;;22.80;43.50;;;;;;7553581;23;83171;-70
2023/05/11 04:14:29;;;;;;;6.35;3.67;;;22.90;43.90;;;;;;7579559;23;82053;-75
2023/05/11 04:17:30;;;;;;;10.52;3.35;;;22.80;43.80;;;;;;7579535;23;84013;-73
2023/05/11 04:20:31;;;;;;;6.53;3.10;;;22.80;44.20;;;;;;7604314;23;80551;-72
2023/05/11 04:23:32;;;;;;;9.48;3.25;;;22.80;43.60;;;;;;7579031;23;83059;-69
2023/05/11 04:26:33;;;;;;;6.97;3.40;;;22.80;43.90;;;;;;7605124;23;80446;-71
2023/05/11 04:29:34;;;;;;;6.55;3.30;;;22.80;43.90;;;;;;7606178;23;80693;-60
2023/05/11 04:32:34;;;;;;;6.03;3.33;;;22.90;43.60;;;;;;7605102;23;81140;-60
2023/05/11 04:35:35;;;;;;;14.55;3.47;;;22.90;43.60;;;;;;7578294;23;82799;-59
2023/05/11 04:38:36;;;;;;;7.85;3.92;;;22.90;42.60;;;;;;7605860;23;80295;-60
2023/05/11 04:41:37;;;;;;;10.95;3.90;;;22.70;41.90;;;;;;7578547;23;83749;-60
2023/05/11 04:44:38;;;;;;;9.23;4.57;;;22.60;41.50;;;;;;7578007;23;81435;-61
2023/05/11 04:47:40;;;;;;;10.00;4.75;;;22.50;41.40;;;;;;7563941;23;82752;-65
2023/05/11 04:50:42;;;;;;;9.32;4.68;;;22.50;41.20;;;;;;7558378;23;83054;-67
2023/05/11 04:53:43;;;;;;;7.90;4.63;;;22.40;41.00;;;;;;7558735;23;81476;-66
2023/05/11 04:56:44;;;;;;;7.00;4.50;;;22.40;40.90;;;;;;7585803;23;81479;-67
2023/05/11 04:59:45;;;;;;;10.95;4.55;;;22.30;40.80;;;;;;7570437;23;81364;-67
2023/05/11 05:02:45;;;;;;;9.15;4.53;;;22.30;40.80;;;;;;7600456;23;80275;-66
2023/05/11 05:05:46;;;;;;;11.82;4.85;;;22.30;40.60;;;;;;7577530;23;83597;-64
2023/05/11 05:08:46;;;;;;;10.93;4.72;;;22.30;40.60;;;;;;7579652;23;83001;-63
2023/05/11 05:11:47;;;;;;;9.35;4.80;;;22.20;40.50;;;;;;7579001;23;81352;-65
2023/05/11 05:14:47;;;;;;;10.45;4.68;;;22.20;40.50;;;;;;7605940;23;80353;-67
2023/05/11 05:17:48;;;;;;;9.05;5.07;;;22.30;40.50;;;;;;7578522;23;81540;-64
2023/05/11 05:20:49;;;;;;;6.95;4.47;;;22.20;40.40;;;;;;7579188;23;82407;-65
2023/05/11 05:23:50;;;;;;;13.57;4.93;;;22.20;40.50;;;;;;7578550;23;81362;-64
2023/05/11 05:26:51;;;;;;;7.55;4.40;;;22.20;40.50;;;;;;7606344;23;80929;-65
2023/05/11 05:29:51;;;;;;;9.82;4.60;;;22.10;40.40;;;;;;7578091;23;83078;-66
2023/05/11 05:32:53;;;;;;;9.60;4.47;;;22.20;40.60;;;;;;7578145;23;82222;-66
2023/05/11 05:35:54;;;;;;;9.85;4.90;;;22.20;40.50;;;;;;7578515;23;81939;-66
2023/05/11 05:38:55;;;;;;;10.02;4.93;;;22.20;40.60;;;;;;7578312;23;83798;-64
2023/05/11 05:41:56;;;;;;;10.70;4.78;;;22.20;40.40;;;;;;7578871;23;83155;-65
2023/05/11 05:44:58;;;;;;;10.07;4.53;;;22.20;40.70;;;;;;7580020;23;83681;-65
2023/05/11 05:48:04;;;;;;;10.30;4.78;;;22.20;40.50;;;;;;7578945;23;80788;-66
2023/05/11 05:51:04;;;;;;;10.20;4.70;;;22.20;40.60;;;;;;7578553;23;83094;-65
2023/05/11 05:54:05;;;;;;;9.93;4.65;;;22.20;40.60;;;;;;7605322;23;80279;-64
2023/05/11 05:57:06;;;;;;;8.02;4.53;;;22.20;40.60;;;;;;7579579;23;82129;-66
2023/05/11 06:00:08;;;;;;;7.95;4.07;;;22.20;40.70;;;;;;7578148;23;83122;-64
2023/05/11 06:03:13;;;;;;;10.07;4.53;;;22.20;40.70;;;;;;7604625;23;80554;-65
2023/05/11 06:06:14;;;;;;;7.90;4.35;;;22.20;40.80;;;;;;7577809;23;83030;-64
2023/05/11 06:09:16;;;;;;;13.05;5.80;;;22.20;40.80;;;;;;7578563;23;82703;-59
2023/05/11 06:12:16;;;;;;;8.10;4.38;;;22.30;40.80;;;;;;7605055;23;81376;-65
2023/05/11 06:15:20;;;;;;;10.45;4.85;;;22.30;40.80;;;;;;7576043;23;83072;-65
2023/05/11 06:18:25;;;;;;;8.13;4.22;;;22.20;40.80;;;;;;7575892;23;83508;-65
2023/05/11 06:21:26;;;;;;;10.75;4.57;;;22.20;40.90;;;;;;7574445;23;83231;-67
2023/05/11 06:24:26;;;;;;;8.48;4.70;;;22.30;40.90;;;;;;7575233;23;83491;-66
2023/05/11 06:27:28;;;;;;;9.02;4.65;;;22.20;40.90;;;;;;7575046;23;80532;-68
2023/05/11 06:30:30;;;;;;;9.88;4.60;;;22.30;41.00;;;;;;7574883;23;82925;-68
2023/05/11 06:33:32;;;;;;;11.18;4.80;;;22.20;40.90;;;;;;7576854;23;83086;-67
2023/05/11 06:36:33;;;;;;;9.88;4.80;;;22.30;41.10;;;;;;7578855;23;83060;-67
2023/05/11 06:39:36;;;;;;;9.07;4.22;;;22.30;41.10;;;;;;7577744;23;82994;-59
2023/05/11 06:42:37;;;;;;;8.20;4.88;;;22.30;41.10;;;;;;7579032;23;82259;-58
2023/05/11 06:45:41;;;;;;;10.57;4.85;;;22.30;41.30;;;;;;7554373;23;83056;-59
2023/05/11 06:48:41;;;;;;;8.52;4.47;;;22.30;41.20;;;;;;7578472;23;81881;-59
2023/05/11 06:51:42;;;;;;;10.20;4.55;;;22.30;41.80;;;;;;7604348;23;80535;-58
2023/05/11 06:54:43;;;;;;;7.95;4.22;;;22.30;41.20;;;;;;7605479;23;80641;-58
2023/05/11 06:57:43;;;;;;;7.97;4.45;;;22.30;41.30;;;;;;7605219;23;81089;-58
2023/05/11 07:00:44;;;;;;;9.02;4.25;;;22.30;41.40;;;;;;7605321;23;80705;-58
2023/05/11 07:03:46;;;;;;;8.50;3.95;;;22.40;41.60;;;;;;7604470;23;80181;-58
2023/05/11 07:06:47;;;;;;;9.75;4.78;;;22.30;41.60;;;;;;7605403;23;80279;-58
2023/05/11 07:09:47;;;;;;;7.22;4.05;;;22.30;41.60;;;;;;7603808;23;80366;-58
2023/05/11 07:12:48;;;;;;;7.93;4.53;;;22.30;42.30;;;;;;7605271;23;80136;-58
2023/05/11 07:15:49;;;;;;;8.98;4.47;;;22.40;41.70;;;;;;7604808;23;80826;-64
2023/05/11 07:18:49;;;;;;;9.82;5.05;;;22.40;41.80;;;;;;7605063;23;81002;-64
2023/05/11 07:21:51;;;;;;;8.20;4.50;;;22.40;41.70;;;;;;7603272;23;86715;-64
2023/05/11 07:24:51;;;;;;;9.73;4.38;;;22.40;41.70;;;;;;7604530;23;80471;-65
2023/05/11 07:27:52;;;;;;;9.45;4.32;;;22.40;41.60;;;;;;7601114;23;80557;-64
2023/05/11 07:30:52;;;;;;;6.95;4.18;;;22.40;41.70;;;;;;7602367;23;80321;-64
2023/05/11 07:33:53;;;;;;;8.93;4.13;;;22.50;41.90;;;;;;7571544;23;80747;-64
2023/05/11 07:36:53;;;;;;;8.07;4.72;;;22.50;41.90;;;;;;7605193;23;80573;-64
2023/05/11 07:39:54;;;;;;;9.27;4.00;;;22.50;41.90;;;;;;7596693;23;81450;-58
2023/05/11 07:42:55;;;;;;;8.30;4.25;;;22.50;42.10;;;;;;7608217;23;80204;-59
2023/05/11 07:45:55;;;;;;;9.57;3.90;;;22.50;42.60;;;;;;7609014;23;80877;-60
2023/05/11 07:48:56;;;;;;;8.50;4.40;;;22.50;42.60;;;;;;7608996;23;80292;-71
2023/05/11 07:51:56;;;;;;;11.90;4.47;;;22.60;42.60;;;;;;7608699;23;80312;-68
2023/05/11 07:54:57;;;;;;;10.70;4.18;;;22.60;42.70;;;;;;7604647;23;80840;-65
2023/05/11 07:57:57;;;;;;;10.70;4.22;;;22.60;42.60;;;;;;7609380;23;80508;-65
2023/05/11 08:00:58;;;;;;;8.40;3.92;;;22.70;42.80;;;;;;7607755;23;80591;-65
2023/05/11 08:03:59;;;;;;;8.32;3.50;;;22.70;42.70;;;;;;7609423;23;80496;-67
2023/05/11 08:06:59;;;;;;;7.15;4.18;;;22.70;42.80;;;;;;7606824;23;80383;-66
2023/05/11 08:10:00;;;;;;;9.98;4.35;;;22.70;42.90;;;;;;7602475;23;84318;-64
2023/05/11 08:13:00;;;;;;;9.90;5.10;;;22.80;42.80;;;;;;7607311;23;80688;-66
2023/05/11 08:16:01;;;;;;;10.07;5.00;;;22.80;42.80;;;;;;7608261;23;80431;-66
2023/05/11 08:19:01;;;;;;;11.63;7.60;;;22.80;42.80;;;;;;7608236;23;80457;-64
2023/05/11 08:22:02;;;;;;;13.85;8.27;;;22.80;43.00;;;;;;7609425;23;80699;-65
2023/05/11 08:25:02;;;;;;;13.27;7.00;;;22.80;43.30;;;;;;7603725;23;80177;-65
2023/05/11 08:28:03;;;;;;;15.77;7.55;;;22.90;43.30;;;;;;7607281;23;80920;-59
2023/05/11 08:31:04;;;;;;;10.90;6.00;;;22.90;43.30;;;;;;7607291;23;80190;-61
2023/05/11 08:34:04;;;;;;;11.23;6.47;;;22.90;43.30;;;;;;7607549;23;80799;-58
2023/05/11 08:37:05;;;;;;;12.35;6.60;;;22.90;44.00;;;;;;7607395;23;80308;-60
2023/05/11 08:40:06;;;;;;;9.32;5.47;;;23.00;44.40;;;;;;7579457;23;83188;-60
2023/05/11 08:43:06;;;;;;;13.77;5.50;;;23.00;44.80;;;;;;7608333;23;81386;-58
2023/05/11 08:46:07;;;;;;;9.15;4.85;;;23.00;45.30;;;;;;7605870;23;80216;-65
2023/05/11 08:49:07;;;;;;;10.98;4.50;;;23.00;45.20;;;;;;7606015;23;80261;-66
2023/05/11 08:52:08;;;;;;;10.23;4.97;;;23.10;44.90;;;;;;7578161;23;81534;-67
2023/05/11 08:55:08;;;;;;;7.78;4.93;;;23.10;44.90;;;;;;7608468;23;80335;-67
2023/05/11 08:58:09;;;;;;;11.35;4.57;;;23.10;44.60;;;;;;7608898;23;81186;-66
2023/05/11 09:01:11;;;;;;;7.00;3.95;;;23.10;44.50;;;;;;7581973;23;82133;-67
2023/05/11 09:04:12;;;;;;;6.38;3.92;;;23.10;44.50;;;;;;7608118;23;80474;-65
2023/05/11 09:07:13;;;;;;;7.78;3.50;;;23.20;44.20;;;;;;7604730;23;81262;-65
2023/05/11 09:10:14;;;;;;;7.00;3.67;;;23.20;44.10;;;;;;7607945;23;80486;-65
2023/05/11 09:13:14;;;;;;;6.22;4.18;;;23.30;43.90;;;;;;7608900;23;80486;-65
2023/05/11 09:16:15;;;;;;;5.80;3.85;;;23.30;43.90;;;;;;7607704;23;80668;-63
2023/05/11 09:19:16;;;;;;;10.75;3.63;;;23.30;43.90;;;;;;7608736;23;80255;-65
2023/05/11 09:22:16;;;;;;;8.60;3.70;;;23.30;43.40;;;;;;7603474;23;81116;-63
2023/05/11 09:25:17;;;;;;;6.22;3.30;;;23.30;43.30;;;;;;7608875;23;80509;-60
2023/05/11 09:28:18;;;;;;;5.40;2.92;;;23.30;43.10;;;;;;7607890;23;80256;-62
2023/05/11 09:31:18;;;;;;;6.15;3.10;;;23.30;43.30;;;;;;7607821;23;80648;-62
2023/05/11 09:34:19;;;;;;;8.25;3.72;;;23.30;43.10;;;;;;7608063;23;80494;-62
2023/05/11 09:37:19;;;;;;;6.30;3.45;;;23.30;43.00;;;;;;7604767;23;80687;-62
2023/05/11 09:40:20;;;;;;;6.93;3.00;;;23.30;43.00;;;;;;7607579;23;80243;-62
2023/05/11 09:43:20;;;;;;;7.15;2.88;;;23.40;42.80;;;;;;7607354;23;80267;-71
2023/05/11 09:46:21;;;;;;;8.73;3.10;;;23.50;43.00;;;;;;7606149;23;80919;-67
2023/05/11 09:49:22;;;;;;;5.13;3.00;;;23.50;42.80;;;;;;7606699;23;81073;-67
2023/05/11 09:52:22;;;;;;;5.70;2.83;;;23.50;42.70;;;;;;7602405;23;80478;-67
2023/05/11 09:55:23;;;;;;;7.57;3.65;;;23.50;42.70;;;;;;7578841;23;81411;-67
2023/05/11 09:58:23;;;;;;;8.25;3.05;;;23.60;42.00;;;;;;7607310;23;80302;-65
2023/05/11 10:01:24;;;;;;;4.22;2.58;;;23.40;40.20;;;;;;7606069;23;80713;-60
2023/05/11 10:04:25;;;;;;;4.18;2.28;;;23.40;39.90;;;;;;7603182;23;80313;-59
2023/05/11 10:07:25;;;;;;;5.47;2.47;;;23.50;39.70;;;;;;7608593;23;80775;-56
2023/05/11 10:10:27;;;;;;;12.48;3.13;;;23.40;39.10;;;;;;7607191;23;82492;-61
2023/05/11 10:13:27;;;;;;;3.38;2.50;;;23.40;39.00;;;;;;7607969;23;80384;-59
2023/05/11 10:16:28;;;;;;;4.68;2.53;;;23.50;39.00;;;;;;7607703;23;80487;-58
2023/05/11 10:19:28;;;;;;;4.90;2.45;;;23.50;38.80;;;;;;7603847;23;81240;-66
2023/05/11 10:22:29;;;;;;;4.90;2.28;;;23.60;39.10;;;;;;7608408;23;80790;-66
2023/05/11 10:25:29;;;;;;;2.70;2.10;;;23.60;38.30;;;;;;7580323;23;80306;-68
2023/05/11 10:28:30;;;;;;;5.05;2.60;;;23.50;37.90;;;;;;7608346;23;80031;-67
2023/05/11 10:31:30;;;;;;;6.47;2.20;;;23.60;38.60;;;;;;7607080;23;80694;-67
2023/05/11 10:34:31;;;;;;;4.13;1.88;;;23.70;38.30;;;;;;7604738;23;81889;-67
2023/05/11 10:37:31;;;;;;;4.68;1.98;;;23.70;37.80;;;;;;7607055;23;80424;-68
2023/05/11 10:40:32;;;;;;;2.65;1.88;;;23.70;37.80;;;;;;7608580;23;80355;-66
2023/05/11 10:43:32;;;;;;;3.50;1.80;;;23.60;37.80;;;;;;7606844;23;80300;-75
2023/05/11 10:46:33;;;;;;;6.63;2.35;;;23.70;37.50;;;;;;7608022;23;80339;-69
2023/05/11 10:49:33;;;;;;;2.92;2.17;;;23.50;37.50;;;;;;7603363;23;80823;-70
2023/05/11 10:52:34;;;;;;;5.30;2.78;;;23.50;37.10;;;;;;7605088;23;80304;-74
2023/05/11 10:55:34;;;;;;;3.20;1.90;;;23.70;38.00;;;;;;7607727;23;80392;-73
2023/05/11 10:58:35;;;;;;;3.97;1.75;;;23.80;38.10;;;;;;7608069;23;80705;-69
2023/05/11 11:01:36;;;;;;;3.60;1.77;;;23.80;37.60;;;;;;7607710;23;80376;-70
2023/05/11 11:04:37;;;;;;;4.15;1.90;;;23.70;36.30;;;;;;7602005;23;80849;-67
2023/05/11 11:07:37;;;;;;;3.97;1.80;;;23.70;36.30;;;;;;7609070;23;80096;-67
2023/05/11 11:10:38;;;;;;;3.90;1.60;;;23.60;36.20;;;;;;7609520;23;80611;-72
2023/05/11 11:13:38;;;;;;;3.72;1.80;;;23.70;36.60;;;;;;7608961;23;80390;-68
2023/05/11 11:16:39;;;;;;;5.57;1.90;;;23.80;36.00;;;;;;7608529;23;80599;-67
2023/05/11 11:19:39;;;;;;;3.50;1.88;;;23.70;36.30;;;;;;7604745;23;80291;-68
2023/05/11 11:22:40;;;;;;;3.53;1.90;;;23.70;36.70;;;;;;7608767;23;81455;-68
2023/05/11 11:25:40;;;;;;;2.92;1.75;;;23.70;35.50;;;;;;7608834;23;80870;-72
2023/05/11 11:28:41;;;;;;;4.18;2.40;;;23.80;36.80;;;;;;7607830;23;80705;-66
2023/05/11 11:31:41;;;;;;;3.65;2.03;;;23.80;36.50;;;;;;7604335;23;80384;-65
2023/05/11 11:34:42;;;;;;;3.05;1.65;;;23.80;35.40;;;;;;7608235;23;81702;-73
2023/05/11 11:37:43;;;;;;;3.20;1.90;;;23.80;36.80;;;;;;7608855;23;80879;-70
2023/05/11 11:40:43;;;;;;;6.47;2.13;;;23.80;36.70;;;;;;7607749;23;80917;-62
2023/05/11 11:43:45;;;;;;;4.88;2.05;;;23.80;37.40;;;;;;7610327;23;80302;-75
2023/05/11 11:46:45;;;;;;;3.50;1.85;;;23.80;37.10;;;;;;7603006;23;80814;-69
2023/05/11 11:49:46;;;;;;;3.33;1.60;;;23.80;37.30;;;;;;7609656;23;80017;-72
2023/05/11 11:52:46;;;;;;;6.03;1.80;;;23.80;36.70;;;;;;7608494;23;80991;-73
2023/05/11 11:55:47;;;;;;;3.53;2.08;;;23.80;36.90;;;;;;7609798;23;80554;-75
2023/05/11 11:58:48;;;;;;;4.30;1.90;;;23.90;37.30;;;;;;7608159;23;80028;-68
2023/05/11 12:01:48;;;;;;;4.00;2.00;;;23.90;36.30;;;;;;7604952;23;80991;-67
2023/05/11 12:04:49;;;;;;;6.95;2.42;;;23.90;37.30;;;;;;7608005;23;79913;-70
2023/05/11 12:07:50;;;;;;;2.35;1.92;;;24.00;37.00;;;;;;7608460;23;80380;-76
2023/05/11 12:10:50;;;;;;;5.38;2.00;;;24.00;36.40;;;;;;7608419;23;85199;-71
2023/05/11 12:13:51;;;;;;;6.38;2.75;;;24.00;37.00;;;;;;7608533;23;80562;-70
2023/05/11 12:16:51;;;;;;;3.55;1.80;;;24.00;36.70;;;;;;7604897;23;80977;-72
2023/05/11 12:19:52;;;;;;;13.30;2.33;;;24.00;36.60;;;;;;7608437;23;80909;-70
2023/05/11 12:22:52;;;;;;;3.38;1.80;;;24.10;37.20;;;;;;7608513;23;80833;-67
2023/05/11 12:25:53;;;;;;;2.75;2.05;;;24.10;37.00;;;;;;7608491;23;80472;-77
2023/05/11 12:28:53;;;;;;;3.67;1.88;;;24.10;37.20;;;;;;7607821;23;80249;-77
2023/05/11 12:31:55;;;;;;;3.65;1.80;;;24.00;36.60;;;;;;7603675;23;80837;-70
2023/05/11 12:34:55;;;;;;;2.30;1.85;;;24.00;36.60;;;;;;7607370;23;80248;-71
2023/05/11 12:37:56;;;;;;;2.70;2.17;;;24.00;36.00;;;;;;7606479;23;80257;-77
2023/05/11 12:40:56;;;;;;;4.93;1.95;;;23.90;35.80;;;;;;7607226;23;81130;-76
2023/05/11 12:43:57;;;;;;;5.75;2.10;;;23.80;35.10;;;;;;7602900;23;81329;-64
2023/05/11 12:46:58;;;;;;;4.00;1.85;;;23.80;36.00;;;;;;7604446;23;80444;-73
2023/05/11 12:49:58;;;;;;;3.75;1.88;;;23.90;36.20;;;;;;7607141;23;80901;-75
2023/05/11 12:52:59;;;;;;;1.90;1.60;;;23.90;35.80;;;;;;7606135;23;80616;-75
2023/05/11 12:55:59;;;;;;;4.03;1.65;;;23.70;35.20;;;;;;7604345;23;80384;-73
2023/05/11 12:59:00;;;;;;;3.25;1.80;;;23.80;34.70;;;;;;7604085;23;81703;-74
2023/05/11 13:02:00;;;;;;;9.25;1.83;;;23.80;35.40;;;;;;7603106;23;80417;-72
2023/05/11 13:05:01;;;;;;;3.78;1.73;;;23.90;35.50;;;;;;7602720;23;80441;-71
2023/05/11 13:08:01;;;;;;;2.90;1.67;;;23.60;35.10;;;;;;7602488;23;80613;-70
2023/05/11 13:11:02;;;;;;;2.05;1.52;;;23.70;35.50;;;;;;7602346;23;80579;-73
2023/05/11 13:14:02;;;;;;;6.60;2.10;;;23.80;35.30;;;;;;7606068;23;81284;-68
2023/05/11 13:17:03;;;;;;;2.63;1.92;;;23.70;35.10;;;;;;7606270;23;80826;-65
2023/05/11 13:20:03;;;;;;;8.82;2.00;;;23.70;34.70;;;;;;7579315;23;80513;-66
2023/05/11 13:23:04;;;;;;;6.80;1.95;;;23.70;35.60;;;;;;7606384;23;80798;-69
2023/05/11 13:26:05;;;;;;;3.90;2.10;;;23.80;35.70;;;;;;7606182;23;80216;-70
2023/05/11 13:29:05;;;;;;;4.20;1.98;;;23.80;35.40;;;;;;7605604;23;80083;-67
2023/05/11 13:32:06;;;;;;;4.32;2.00;;;23.80;35.70;;;;;;7605746;23;80396;-63
2023/05/11 13:35:06;;;;;;;7.07;1.95;;;23.80;37.00;;;;;;7605047;23;80392;-73
2023/05/11 13:38:07;;;;;;;5.05;1.95;;;23.80;37.10;;;;;;7606717;23;80060;-69
2023/05/11 13:41:08;;;;;;;3.72;1.85;;;23.80;36.40;;;;;;7605242;23;81359;-59
2023/05/11 13:44:08;;;;;;;6.80;2.33;;;23.70;36.00;;;;;;7605420;23;80242;-58
2023/05/11 13:47:09;;;;;;;9.57;1.95;;;23.70;36.40;;;;;;7605216;23;80609;-60
2023/05/11 13:50:09;;;;;;;5.88;2.50;;;23.80;36.60;;;;;;7605600;23;80082;-60
2023/05/11 13:53:10;;;;;;;4.95;1.70;;;23.80;36.30;;;;;;7605417;23;80218;-60
2023/05/11 13:56:10;;;;;;;4.78;2.00;;;23.80;36.80;;;;;;7606524;23;80325;-60
2023/05/11 13:59:11;;;;;;;6.28;1.83;;;23.80;36.40;;;;;;7605473;23;80326;-60
2023/05/11 14:02:11;;;;;;;2.58;1.80;;;23.80;36.60;;;;;;7606071;23;80191;-61
2023/05/11 14:05:12;;;;;;;8.50;2.20;;;23.80;36.50;;;;;;7604448;23;80510;-61
2023/05/11 14:08:13;;;;;;;2.67;1.58;;;23.50;35.40;;;;;;7585984;23;81914;-60
2023/05/11 14:11:13;;;;;;;5.05;1.98;;;23.30;35.40;;;;;;7602922;23;81202;-60
2023/05/11 14:14:14;;;;;;;4.60;2.08;;;23.20;35.00;;;;;;7595665;23;81260;-60
2023/05/11 14:17:14;;;;;;;5.57;1.70;;;23.00;34.60;;;;;;7600313;23;80613;-60
2023/05/11 14:20:15;;;;;;;6.53;1.70;;;23.00;35.00;;;;;;7604667;23;80259;-58
2023/05/11 14:23:15;;;;;;;4.32;2.30;;;23.10;35.20;;;;;;7605919;23;80041;-58
2023/05/11 14:26:16;;;;;;;3.15;1.95;;;23.10;35.30;;;;;;7605153;23;80376;-59
2023/05/11 14:29:16;;;;;;;2.53;1.75;;;23.10;34.70;;;;;;7605216;23;80649;-61
2023/05/11 14:32:18;;;;;;;4.85;1.95;;;23.10;35.20;;;;;;7603298;23;80328;-59
2023/05/11 14:35:18;;;;;;;2.83;1.55;;;23.20;35.20;;;;;;7604381;23;80408;-60
2023/05/11 14:38:19;;;;;;;5.97;1.50;;;23.10;34.30;;;;;;7603320;23;80276;-60
2023/05/11 14:41:20;;;;;;;2.92;1.80;;;23.00;34.40;;;;;;7601890;23;80346;-59
2023/05/11 14:44:20;;;;;;;3.17;1.85;;;23.00;35.20;;;;;;7603868;23;80643;-59
2023/05/11 14:47:21;;;;;;;2.75;1.77;;;23.00;35.40;;;;;;7604727;23;80963;-60
2023/05/11 14:50:21;;;;;;;3.92;1.80;;;23.00;34.90;;;;;;7603323;23;80287;-59
2023/05/11 14:53:22;;;;;;;4.13;2.17;;;23.00;35.50;;;;;;7599668;23;80752;-58
2023/05/11 14:56:22;;;;;;;6.88;1.65;;;23.10;35.50;;;;;;7593148;23;81270;-60
2023/05/11 14:59:23;;;;;;;3.72;1.58;;;23.00;35.60;;;;;;7601189;23;81087;-59
2023/05/11 15:02:23;;;;;;;3.53;1.90;;;23.10;35.80;;;;;;7599726;23;80672;-60
2023/05/11 15:05:25;;;;;;;3.20;1.98;;;22.90;35.10;;;;;;7601748;23;80486;-60
2023/05/11 15:08:26;;;;;;;4.43;1.50;;;22.80;35.10;;;;;;7593051;23;80022;-60
2023/05/11 15:11:26;;;;;;;2.92;2.05;;;22.70;35.20;;;;;;7604129;23;80223;-58
2023/05/11 15:14:27;;;;;;;2.35;1.83;;;22.80;35.40;;;;;;7603458;23;80381;-58
2023/05/11 15:17:27;;;;;;;5.43;1.90;;;22.60;35.20;;;;;;7604253;23;80860;-60
2023/05/11 15:20:28;;;;;;;4.68;1.55;;;22.70;34.80;;;;;;7605808;23;81153;-57
2023/05/11 15:23:28;;;;;;;3.38;1.60;;;22.60;35.10;;;;;;7603585;23;80311;-58
2023/05/11 15:26:29;;;;;;;2.95;1.80;;;22.70;35.30;;;;;;7607055;23;80499;-57
2023/05/11 15:29:31;;;;;;;3.05;1.70;;;23.00;35.50;;;;;;7606900;23;80716;-58
2023/05/11 15:32:31;;;;;;;4.65;1.60;;;23.10;34.60;;;;;;7579600;23;80477;-58
2023/05/11 15:35:32;;;;;;;2.47;1.60;;;22.70;34.50;;;;;;7607769;23;81377;-57
2023/05/11 15:38:32;;;;;;;2.47;1.55;;;22.60;35.00;;;;;;7603567;23;80382;-58